Time;durP1;ratioP1;P1;durP2;ratioP2;P2;SDS_P1;SDS_P2;PMS_P1;PMS_P2;Temp;Humidity;BMP_temperature;BMP_pressure;BME280_temperature;BME280_humidity;BME280_pressure;Samples;Min_cycle;Max_cycle;Signal;HPM_P1;HPM_P2
2023/03/29 00:01:57;;;;;;;2.08;1.73;;;8.40;54.00;;;;;;5066793;28;20395;-62
2023/03/29 00:04:26;;;;;;;2.58;1.88;;;8.30;53.90;;;;;;5064709;28;20024;-62
2023/03/29 00:06:52;;;;;;;2.60;1.63;;;8.30;54.20;;;;;;5069185;28;20096;-62
2023/03/29 00:09:18;;;;;;;3.70;2.20;;;8.30;54.40;;;;;;5061347;28;20022;-63
2023/03/29 00:11:45;;;;;;;2.28;1.90;;;8.20;55.10;;;;;;5061914;28;20032;-63
2023/03/29 00:14:11;;;;;;;1.95;1.70;;;8.20;55.10;;;;;;5060508;28;20068;-64
2023/03/29 00:16:37;;;;;;;1.70;1.50;;;8.10;55.30;;;;;;5061414;28;20036;-63
2023/03/29 00:19:03;;;;;;;4.80;1.92;;;8.20;55.60;;;;;;5063940;28;20128;-62
2023/03/29 00:21:29;;;;;;;2.72;1.92;;;8.10;55.60;;;;;;5061717;28;20479;-64
2023/03/29 00:23:56;;;;;;;2.22;1.88;;;8.10;56.10;;;;;;5059691;28;20089;-62
2023/03/29 00:26:22;;;;;;;2.33;1.85;;;8.00;56.40;;;;;;5060967;28;20021;-64
2023/03/29 00:28:47;;;;;;;2.20;1.80;;;8.00;56.60;;;;;;5060826;28;20028;-62
2023/03/29 00:31:16;;;;;;;2.67;1.80;;;8.00;56.80;;;;;;5061455;28;20029;-62
2023/03/29 00:33:42;;;;;;;2.90;1.75;;;8.00;57.40;;;;;;5063040;28;20064;-62
2023/03/29 00:36:09;;;;;;;2.17;1.63;;;8.00;57.70;;;;;;5057083;28;20025;-62
2023/03/29 00:38:35;;;;;;;2.63;1.75;;;8.00;57.70;;;;;;5059341;28;20363;-63
2023/03/29 00:41:02;;;;;;;3.22;1.73;;;8.00;57.70;;;;;;5052695;28;20033;-63
2023/03/29 00:43:29;;;;;;;2.15;1.90;;;8.00;58.10;;;;;;5063746;28;20025;-62
2023/03/29 00:45:55;;;;;;;2.85;1.90;;;8.00;58.20;;;;;;5064392;28;20063;-62
2023/03/29 00:48:28;;;;;;;1.75;1.60;;;8.00;58.20;;;;;;5062529;28;20395;-62
2023/03/29 00:51:02;;;;;;;2.75;1.50;;;8.00;58.60;;;;;;5063746;28;20021;-63
2023/03/29 00:53:32;;;;;;;2.58;1.40;;;8.00;58.50;;;;;;5058339;28;20096;-63
2023/03/29 00:56:23;;;;;;;2.10;1.60;;;7.90;58.40;;;;;;5062177;28;20048;-62
2023/03/29 00:59:12;;;;;;;2.63;1.70;;;8.00;58.50;;;;;;5063439;28;20029;-62
2023/03/29 01:01:53;;;;;;;2.92;1.70;;;7.90;59.10;;;;;;5060546;28;20029;-63
2023/03/29 01:04:22;;;;;;;2.40;1.80;;;7.90;58.90;;;;;;5056226;28;20071;-62
2023/03/29 01:07:00;;;;;;;2.47;1.90;;;8.00;58.60;;;;;;5056749;28;20047;-63
2023/03/29 01:09:29;;;;;;;1.50;1.40;;;8.00;59.30;;;;;;5059638;28;20049;-63
2023/03/29 01:11:57;;;;;;;2.70;1.70;;;7.90;58.70;;;;;;5059874;28;20029;-62
2023/03/29 01:14:33;;;;;;;1.77;1.50;;;8.00;58.80;;;;;;5059944;28;20120;-62
2023/03/29 01:16:58;;;;;;;2.22;1.70;;;8.00;59.60;;;;;;5058859;28;20045;-63
2023/03/29 01:19:30;;;;;;;2.95;1.55;;;7.90;58.80;;;;;;5060771;28;20023;-62
2023/03/29 01:22:27;;;;;;;5.80;1.90;;;8.00;59.10;;;;;;5061249;28;20067;-62
2023/03/29 01:25:04;;;;;;;3.83;1.65;;;8.00;60.50;;;;;;5056498;28;20056;-63
2023/03/29 01:27:48;;;;;;;2.80;1.67;;;8.00;59.30;;;;;;5061307;28;20021;-62
2023/03/29 01:30:32;;;;;;;2.65;1.60;;;8.00;59.30;;;;;;5060064;28;20107;-63
2023/03/29 01:33:01;;;;;;;1.92;1.63;;;7.90;59.30;;;;;;5055987;28;20048;-63
2023/03/29 01:35:33;;;;;;;5.47;1.70;;;7.90;59.20;;;;;;5059908;28;20029;-63
2023/03/29 01:38:15;;;;;;;2.03;1.70;;;7.90;59.50;;;;;;5060885;28;20040;-62
2023/03/29 01:40:41;;;;;;;2.47;1.65;;;7.90;59.80;;;;;;5057828;28;20025;-63
2023/03/29 01:43:20;;;;;;;1.88;1.75;;;7.90;59.40;;;;;;5064871;28;20113;-63
2023/03/29 01:46:00;;;;;;;2.33;1.80;;;7.90;60.00;;;;;;5057347;28;20454;-64
2023/03/29 01:48:33;;;;;;;1.50;1.40;;;7.90;60.20;;;;;;5054788;28;20080;-62
2023/03/29 01:51:07;;;;;;;3.38;1.88;;;7.90;59.80;;;;;;5063548;28;20025;-63
2023/03/29 01:54:01;;;;;;;4.20;1.70;;;7.90;59.80;;;;;;5058090;28;20028;-63
2023/03/29 01:56:29;;;;;;;2.95;1.88;;;7.90;61.00;;;;;;5057723;28;20048;-62
2023/03/29 01:59:00;;;;;;;3.95;1.88;;;7.90;59.60;;;;;;5061576;28;20375;-62
2023/03/29 02:01:30;;;;;;;4.13;2.15;;;7.90;59.70;;;;;;5058552;28;20059;-64
2023/03/29 02:04:01;;;;;;;2.78;2.20;;;7.90;59.80;;;;;;5061674;28;20028;-63
2023/03/29 02:06:30;;;;;;;4.10;2.13;;;7.90;60.10;;;;;;5060596;28;20041;-62
2023/03/29 02:08:56;;;;;;;3.38;2.20;;;7.90;59.90;;;;;;5063931;28;20088;-62
2023/03/29 02:11:25;;;;;;;3.60;2.38;;;7.90;59.80;;;;;;5057201;28;20044;-63
2023/03/29 02:13:52;;;;;;;5.88;2.30;;;7.90;60.10;;;;;;5058359;28;20096;-62
2023/03/29 02:16:18;;;;;;;2.60;2.10;;;7.90;60.00;;;;;;5059071;28;20456;-62
2023/03/29 02:18:47;;;;;;;4.10;2.42;;;7.80;60.10;;;;;;5060037;28;20044;-62
2023/03/29 02:21:25;;;;;;;2.25;2.05;;;7.80;60.30;;;;;;5058004;28;20028;-63
2023/03/29 02:23:54;;;;;;;2.38;2.17;;;7.80;60.80;;;;;;5057128;28;20093;-62
2023/03/29 02:26:21;;;;;;;3.22;2.30;;;7.90;60.30;;;;;;5056823;28;20021;-63
2023/03/29 02:28:47;;;;;;;4.88;2.38;;;7.80;60.00;;;;;;5064045;28;20071;-62
2023/03/29 02:31:28;;;;;;;4.45;2.25;;;7.80;60.20;;;;;;5059236;28;20029;-61
2023/03/29 02:34:16;;;;;;;5.78;2.60;;;7.80;60.90;;;;;;5053593;28;20033;-63
2023/03/29 02:36:47;;;;;;;5.07;2.75;;;7.80;61.00;;;;;;5057248;28;20028;-64
2023/03/29 02:39:14;;;;;;;2.75;2.45;;;7.80;60.30;;;;;;5059384;28;20029;-64
2023/03/29 02:41:43;;;;;;;5.03;2.72;;;7.80;60.50;;;;;;5057882;28;20018;-63
2023/03/29 02:44:15;;;;;;;2.88;2.58;;;7.80;60.80;;;;;;5060329;28;20498;-63
2023/03/29 02:46:42;;;;;;;4.18;3.10;;;7.80;61.00;;;;;;5057362;28;20498;-63
2023/03/29 02:49:09;;;;;;;4.55;3.38;;;7.80;60.80;;;;;;5055043;28;20047;-63
2023/03/29 02:51:37;;;;;;;4.80;3.50;;;7.80;60.80;;;;;;5059364;28;20056;-63
2023/03/29 02:54:07;;;;;;;3.88;3.05;;;7.80;60.80;;;;;;5058758;28;20056;-63
2023/03/29 02:56:44;;;;;;;4.78;3.15;;;7.80;61.10;;;;;;5059844;28;20029;-64
2023/03/29 02:59:11;;;;;;;4.70;3.42;;;7.80;61.50;;;;;;5057399;28;20049;-63
2023/03/29 03:01:38;;;;;;;6.07;3.58;;;7.80;60.80;;;;;;5062818;28;20025;-63
2023/03/29 03:04:04;;;;;;;4.68;3.42;;;7.80;60.90;;;;;;5058115;28;20081;-63
2023/03/29 03:06:29;;;;;;;5.43;3.60;;;7.80;60.90;;;;;;5055497;28;20064;-63
2023/03/29 03:08:55;;;;;;;5.22;3.70;;;7.80;61.00;;;;;;5056149;28;20033;-63
2023/03/29 03:11:22;;;;;;;4.80;3.75;;;7.80;60.90;;;;;;5060180;28;20040;-63
2023/03/29 03:13:48;;;;;;;7.15;4.15;;;7.80;61.00;;;;;;5055136;28;20097;-63
2023/03/29 03:16:14;;;;;;;6.55;3.75;;;7.80;61.00;;;;;;5057325;28;20029;-63
2023/03/29 03:18:40;;;;;;;6.53;4.25;;;7.80;61.80;;;;;;5061973;28;20044;-64
2023/03/29 03:21:06;;;;;;;7.60;4.03;;;7.80;61.10;;;;;;5053899;28;20487;-63
2023/03/29 03:23:31;;;;;;;5.43;3.83;;;7.80;61.10;;;;;;5056568;28;20053;-63
2023/03/29 03:25:57;;;;;;;6.43;4.10;;;7.80;61.00;;;;;;5058944;28;20060;-62
2023/03/29 03:28:23;;;;;;;4.95;3.55;;;7.80;61.10;;;;;;5057026;28;20371;-62
2023/03/29 03:30:49;;;;;;;5.78;4.10;;;7.80;61.10;;;;;;5053717;28;20034;-63
2023/03/29 03:33:15;;;;;;;7.80;4.25;;;7.80;61.10;;;;;;5058471;28;20044;-63
2023/03/29 03:35:41;;;;;;;8.10;3.83;;;7.80;61.10;;;;;;5055362;28;20463;-63
2023/03/29 03:38:07;;;;;;;5.93;4.05;;;7.80;61.10;;;;;;5056111;28;20093;-64
2023/03/29 03:40:33;;;;;;;6.32;3.85;;;7.80;61.00;;;;;;5054941;28;20021;-63
2023/03/29 03:42:59;;;;;;;6.15;4.18;;;7.80;61.00;;;;;;5060001;28;20036;-63
2023/03/29 03:45:25;;;;;;;5.57;3.58;;;7.80;61.00;;;;;;5057406;28;20033;-62
2023/03/29 03:47:51;;;;;;;8.40;4.97;;;7.80;61.00;;;;;;5057243;28;20017;-63
2023/03/29 03:50:17;;;;;;;6.22;5.18;;;7.70;61.00;;;;;;5052086;28;20554;-63
2023/03/29 03:52:43;;;;;;;7.47;4.90;;;7.70;61.00;;;;;;5054773;28;20040;-64
2023/03/29 03:55:08;;;;;;;8.35;4.50;;;7.70;61.10;;;;;;5053719;28;20033;-63
2023/03/29 03:57:37;;;;;;;6.05;4.85;;;7.70;61.10;;;;;;5057408;28;20078;-62
2023/03/29 04:00:18;;;;;;;6.20;4.53;;;7.60;61.20;;;;;;5062699;28;20033;-64
2023/03/29 04:02:45;;;;;;;5.30;3.72;;;7.60;61.50;;;;;;5064086;28;20024;-63
2023/03/29 04:05:11;;;;;;;5.88;3.83;;;7.60;61.20;;;;;;5063796;28;20051;-64
2023/03/29 04:07:37;;;;;;;4.70;3.85;;;7.60;61.20;;;;;;5058047;28;20033;-64
2023/03/29 04:10:05;;;;;;;6.95;4.38;;;7.60;61.10;;;;;;5062485;28;20025;-62
2023/03/29 04:12:30;;;;;;;7.85;4.75;;;7.60;61.20;;;;;;5060963;28;20534;-63
2023/03/29 04:14:57;;;;;;;8.90;5.07;;;7.60;61.60;;;;;;5061942;28;20045;-65
2023/03/29 04:17:24;;;;;;;6.50;4.45;;;7.50;61.70;;;;;;5061358;28;20036;-62
2023/03/29 04:19:50;;;;;;;6.15;4.43;;;7.50;61.90;;;;;;5061088;28;20076;-62
2023/03/29 04:22:16;;;;;;;5.65;4.13;;;7.50;62.00;;;;;;5059471;28;20053;-63
2023/03/29 04:24:41;;;;;;;6.32;4.53;;;7.50;62.10;;;;;;5059499;28;20021;-63
2023/03/29 04:27:07;;;;;;;6.82;4.60;;;7.50;62.10;;;;;;5060651;28;20029;-63
2023/03/29 04:29:33;;;;;;;8.43;5.15;;;7.50;62.00;;;;;;5061496;28;20539;-65
2023/03/29 04:31:59;;;;;;;5.78;4.60;;;7.50;62.10;;;;;;5062096;28;20064;-63
2023/03/29 04:34:24;;;;;;;7.68;4.82;;;7.60;62.30;;;;;;5065380;28;20036;-62
2023/03/29 04:36:50;;;;;;;6.47;5.10;;;7.60;62.30;;;;;;5060612;28;20039;-62
2023/03/29 04:39:16;;;;;;;10.82;5.22;;;7.60;62.30;;;;;;5059592;28;20017;-64
2023/03/29 04:41:43;;;;;;;5.82;4.57;;;7.50;62.30;;;;;;4996008;28;20021;-63
2023/03/29 04:44:09;;;;;;;6.35;4.53;;;7.60;62.40;;;;;;5059908;28;20028;-63
2023/03/29 04:46:37;;;;;;;8.45;4.32;;;7.60;62.50;;;;;;5068989;28;20032;-62
2023/03/29 04:49:03;;;;;;;7.95;4.63;;;7.60;62.60;;;;;;5058806;28;20021;-63
2023/03/29 04:51:30;;;;;;;8.13;5.00;;;7.60;62.60;;;;;;5056611;28;20368;-62
2023/03/29 04:53:56;;;;;;;6.90;4.82;;;7.60;62.60;;;;;;5061944;28;20063;-64
2023/03/29 04:56:22;;;;;;;7.10;4.72;;;7.60;62.70;;;;;;5059040;28;20028;-63
2023/03/29 04:58:48;;;;;;;5.93;4.50;;;7.60;62.60;;;;;;5060842;28;20040;-63
2023/03/29 05:01:14;;;;;;;10.02;5.15;;;7.60;62.60;;;;;;5057930;28;20032;-64
2023/03/29 05:03:40;;;;;;;7.93;5.03;;;7.70;62.70;;;;;;5064353;28;20098;-64
2023/03/29 05:06:11;;;;;;;10.80;5.00;;;7.70;62.70;;;;;;5063056;28;20091;-62
2023/03/29 05:08:38;;;;;;;7.07;4.97;;;7.70;62.80;;;;;;5057507;28;20575;-63
2023/03/29 05:11:09;;;;;;;7.25;4.75;;;7.70;62.60;;;;;;5060120;28;20075;-63
2023/03/29 05:13:35;;;;;;;6.68;4.70;;;7.70;62.90;;;;;;5065261;28;20439;-63
2023/03/29 05:16:02;;;;;;;7.57;4.82;;;7.70;62.80;;;;;;5061966;28;20062;-62
2023/03/29 05:18:29;;;;;;;8.95;5.25;;;7.70;62.90;;;;;;5064290;28;20057;-62
2023/03/29 05:20:55;;;;;;;6.38;5.07;;;7.70;63.10;;;;;;5064421;28;20092;-62
2023/03/29 05:23:21;;;;;;;8.70;4.05;;;7.70;63.10;;;;;;5062028;28;20029;-63
2023/03/29 05:25:50;;;;;;;7.35;4.30;;;7.80;63.10;;;;;;5062429;28;20535;-63
2023/03/29 05:28:17;;;;;;;7.00;4.72;;;7.80;63.00;;;;;;5053974;28;20029;-62
2023/03/29 05:30:43;;;;;;;8.73;4.28;;;7.80;63.00;;;;;;5060148;28;20064;-63
2023/03/29 05:33:09;;;;;;;9.77;4.70;;;7.80;63.00;;;;;;5059449;28;20036;-63
2023/03/29 05:35:35;;;;;;;6.95;4.38;;;7.80;63.00;;;;;;5060423;28;20029;-64
2023/03/29 05:38:03;;;;;;;6.43;4.55;;;7.80;63.00;;;;;;5060043;28;20075;-63
2023/03/29 05:40:30;;;;;;;8.00;4.57;;;7.90;63.00;;;;;;4970977;28;20021;-63
2023/03/29 05:43:01;;;;;;;5.32;4.03;;;7.90;63.00;;;;;;5060546;28;20034;-62
2023/03/29 05:45:28;;;;;;;7.32;4.30;;;7.90;63.00;;;;;;5057343;28;20070;-64
2023/03/29 05:47:54;;;;;;;7.13;4.57;;;8.00;63.10;;;;;;5057369;28;20025;-63
2023/03/29 05:50:20;;;;;;;7.35;4.18;;;8.00;63.00;;;;;;5062379;28;20020;-64
2023/03/29 05:52:46;;;;;;;9.88;4.28;;;8.00;63.00;;;;;;5061933;28;20042;-63
2023/03/29 05:55:12;;;;;;;5.72;4.20;;;8.10;63.00;;;;;;5059728;28;20028;-63
2023/03/29 05:57:38;;;;;;;9.18;4.55;;;8.10;63.10;;;;;;5058116;28;20025;-63
2023/03/29 06:03:00;;;;;;;7.90;4.05;;;8.20;63.20;;;;;;5050504;28;20044;-66
2023/03/29 06:05:26;;;;;;;6.38;4.45;;;8.30;63.20;;;;;;5059851;28;20052;-66
2023/03/29 06:07:52;;;;;;;7.32;4.43;;;8.30;63.30;;;;;;5058327;28;20025;-66
2023/03/29 06:10:19;;;;;;;7.55;4.07;;;8.30;63.30;;;;;;5055917;28;20102;-66
2023/03/29 06:12:48;;;;;;;5.28;2.80;;;8.40;63.30;;;;;;5057028;28;20033;-65
2023/03/29 06:15:14;;;;;;;5.00;2.95;;;8.50;63.00;;;;;;5049676;28;20039;-66
2023/03/29 06:17:41;;;;;;;4.63;2.92;;;8.50;62.50;;;;;;5058874;28;20500;-66
2023/03/29 06:20:10;;;;;;;4.07;2.22;;;8.60;62.40;;;;;;5057779;28;20075;-66
2023/03/29 06:22:40;;;;;;;4.63;2.70;;;8.60;62.20;;;;;;5060428;28;20039;-66
2023/03/29 06:25:09;;;;;;;5.03;2.40;;;8.70;62.20;;;;;;5055537;28;20029;-66
2023/03/29 06:27:35;;;;;;;4.80;2.65;;;8.80;62.00;;;;;;5059966;28;20113;-66
2023/03/29 06:30:02;;;;;;;5.15;3.00;;;8.80;61.70;;;;;;5059658;28;20450;-66
2023/03/29 06:32:28;;;;;;;3.38;2.45;;;8.90;61.60;;;;;;5061364;28;20116;-66
2023/03/29 06:34:54;;;;;;;8.43;3.13;;;8.90;61.40;;;;;;5059060;28;20040;-66
2023/03/29 06:37:22;;;;;;;5.88;3.03;;;9.00;61.20;;;;;;5058213;28;20021;-66
2023/03/29 06:39:51;;;;;;;4.43;2.63;;;9.10;61.00;;;;;;5058884;28;20025;-65
2023/03/29 06:42:21;;;;;;;5.63;2.80;;;9.10;61.00;;;;;;5057193;28;20025;-66
2023/03/29 06:44:48;;;;;;;4.10;2.65;;;9.20;61.00;;;;;;5057136;28;20035;-66
2023/03/29 06:47:14;;;;;;;4.95;2.63;;;9.30;61.00;;;;;;5057676;28;20067;-66
2023/03/29 06:49:40;;;;;;;7.13;3.03;;;9.30;60.80;;;;;;5060675;28;20021;-65
2023/03/29 06:52:06;;;;;;;5.63;2.85;;;9.30;60.60;;;;;;5061440;28;20031;-66
2023/03/29 06:54:32;;;;;;;6.15;3.03;;;9.40;60.50;;;;;;5057312;28;20037;-66
2023/03/29 06:56:58;;;;;;;6.95;3.45;;;9.30;60.40;;;;;;5059224;28;20021;-66
2023/03/29 06:59:24;;;;;;;8.93;3.33;;;9.50;60.50;;;;;;5057254;28;20052;-65
2023/03/29 07:01:52;;;;;;;7.65;3.47;;;9.50;60.50;;;;;;5058382;28;20119;-65
2023/03/29 07:04:19;;;;;;;8.10;3.00;;;9.60;60.30;;;;;;5060404;28;20046;-66
2023/03/29 07:06:47;;;;;;;6.55;3.05;;;9.60;60.10;;;;;;5062218;28;20029;-66
2023/03/29 07:09:18;;;;;;;7.05;3.15;;;9.60;60.10;;;;;;5055448;28;20038;-66
2023/03/29 07:11:45;;;;;;;9.45;3.03;;;9.70;60.20;;;;;;5050652;28;20539;-66
2023/03/29 07:14:11;;;;;;;7.93;3.20;;;9.70;60.10;;;;;;5057561;28;20033;-66
2023/03/29 07:16:37;;;;;;;5.35;2.80;;;9.80;60.10;;;;;;5055886;28;20055;-64
2023/03/29 07:19:04;;;;;;;5.90;2.95;;;9.80;59.90;;;;;;5057130;28;20017;-65
2023/03/29 07:21:30;;;;;;;6.88;2.88;;;9.80;60.00;;;;;;5055725;28;20473;-66
2023/03/29 07:23:59;;;;;;;10.00;3.17;;;9.90;60.00;;;;;;5062979;28;20032;-66
2023/03/29 07:26:25;;;;;;;6.25;2.80;;;9.90;59.90;;;;;;5059626;28;20040;-65
2023/03/29 07:28:52;;;;;;;7.38;2.92;;;10.00;59.80;;;;;;5052705;28;20033;-66
2023/03/29 07:31:17;;;;;;;7.88;3.15;;;10.10;59.80;;;;;;5058582;28;20037;-66
2023/03/29 07:33:43;;;;;;;9.40;2.90;;;10.10;59.60;;;;;;5059697;28;20040;-66
2023/03/29 07:36:09;;;;;;;7.47;3.33;;;10.20;59.50;;;;;;5061624;28;20030;-67
2023/03/29 07:38:36;;;;;;;4.82;2.78;;;10.20;59.70;;;;;;5061233;28;20032;-67
2023/03/29 07:41:06;;;;;;;6.32;3.15;;;10.30;59.70;;;;;;5000051;28;20052;-66
2023/03/29 07:43:33;;;;;;;4.95;2.42;;;10.40;59.80;;;;;;5061889;28;20022;-66
2023/03/29 07:46:03;;;;;;;8.02;2.85;;;10.50;59.70;;;;;;5055488;28;20449;-66
2023/03/29 07:48:30;;;;;;;5.93;2.75;;;10.60;59.80;;;;;;5057670;28;20037;-65
2023/03/29 07:50:56;;;;;;;6.30;2.78;;;10.80;59.80;;;;;;5060198;28;20037;-66
2023/03/29 07:53:22;;;;;;;9.82;2.60;;;10.90;59.60;;;;;;5057692;28;20063;-66
2023/03/29 07:55:48;;;;;;;7.32;2.75;;;11.10;59.50;;;;;;5060127;28;20019;-66
2023/03/29 07:58:15;;;;;;;5.57;2.33;;;11.20;59.30;;;;;;5053675;28;20082;-65
2023/03/29 08:00:42;;;;;;;6.82;2.55;;;11.30;59.10;;;;;;5055233;28;20076;-66
2023/03/29 08:03:11;;;;;;;3.45;2.15;;;11.40;58.80;;;;;;5062084;28;20386;-66
2023/03/29 08:05:38;;;;;;;7.60;2.58;;;11.50;58.40;;;;;;5054844;28;20051;-66
2023/03/29 08:08:05;;;;;;;4.97;2.20;;;11.60;58.10;;;;;;5063857;28;20029;-65
2023/03/29 08:10:33;;;;;;;6.20;2.63;;;11.60;57.80;;;;;;5061232;28;20025;-65
2023/03/29 08:12:59;;;;;;;5.72;2.25;;;11.70;57.90;;;;;;5056121;28;20115;-66
2023/03/29 08:15:26;;;;;;;4.78;2.25;;;11.80;57.90;;;;;;5059801;28;20136;-66
2023/03/29 08:17:52;;;;;;;4.15;2.33;;;11.90;57.70;;;;;;5058525;28;20153;-66
2023/03/29 08:20:18;;;;;;;4.15;2.03;;;12.00;57.60;;;;;;5059276;28;20048;-64
2023/03/29 08:22:45;;;;;;;5.10;2.20;;;12.00;57.30;;;;;;5061121;28;20024;-67
2023/03/29 08:25:11;;;;;;;6.45;1.88;;;12.10;57.20;;;;;;5063428;28;20049;-67
2023/03/29 08:27:37;;;;;;;5.05;1.98;;;12.20;57.60;;;;;;5059656;28;20024;-66
2023/03/29 08:30:06;;;;;;;8.48;1.85;;;12.30;56.70;;;;;;5059357;28;20097;-65
2023/03/29 08:32:32;;;;;;;8.55;2.30;;;12.40;56.60;;;;;;5059984;28;20045;-65
2023/03/29 08:34:58;;;;;;;6.65;1.92;;;12.40;56.20;;;;;;5057765;28;20040;-65
2023/03/29 08:37:24;;;;;;;5.90;2.30;;;12.50;56.00;;;;;;5060338;28;20025;-64
2023/03/29 08:39:50;;;;;;;6.00;2.10;;;12.50;55.60;;;;;;5054880;28;20037;-66
2023/03/29 08:42:29;;;;;;;3.65;1.80;;;12.50;55.60;;;;;;5059005;28;20021;-65
2023/03/29 08:45:08;;;;;;;4.53;2.17;;;12.50;55.50;;;;;;5055719;28;20086;-64
2023/03/29 08:47:55;;;;;;;4.05;2.17;;;12.50;55.10;;;;;;5056723;28;20055;-65
2023/03/29 08:50:39;;;;;;;4.88;2.20;;;12.50;55.10;;;;;;5056181;28;20033;-64
2023/03/29 08:53:11;;;;;;;2.38;2.13;;;12.50;55.20;;;;;;5061166;28;20033;-66
2023/03/29 08:55:40;;;;;;;4.05;2.10;;;12.50;55.30;;;;;;5057884;28;20033;-66
2023/03/29 08:58:14;;;;;;;4.57;1.90;;;12.50;55.20;;;;;;5061024;28;20032;-66
2023/03/29 09:00:45;;;;;;;2.70;1.88;;;12.60;55.30;;;;;;5057677;28;20051;-65
2023/03/29 09:03:28;;;;;;;4.97;2.35;;;12.60;55.30;;;;;;5058475;28;20128;-64
2023/03/29 09:06:13;;;;;;;3.53;1.77;;;12.70;55.40;;;;;;5059645;28;20032;-65
2023/03/29 09:08:42;;;;;;;6.03;1.90;;;12.80;55.00;;;;;;5055281;28;20108;-65
2023/03/29 09:11:23;;;;;;;5.10;2.25;;;12.90;55.10;;;;;;5059987;28;20474;-66
2023/03/29 09:14:07;;;;;;;6.07;1.95;;;13.10;54.90;;;;;;5058382;28;20141;-65
2023/03/29 09:17:06;;;;;;;3.15;1.98;;;13.10;54.60;;;;;;5056287;28;20034;-67
2023/03/29 09:19:50;;;;;;;5.55;2.08;;;13.20;54.20;;;;;;5053616;28;20444;-66
2023/03/29 09:22:31;;;;;;;4.20;1.83;;;13.30;54.50;;;;;;5051690;28;20103;-66
2023/03/29 09:25:04;;;;;;;6.20;2.00;;;13.40;54.40;;;;;;5060758;28;20616;-65
2023/03/29 09:27:47;;;;;;;2.90;1.70;;;13.40;54.30;;;;;;5055456;28;20029;-66
2023/03/29 09:30:15;;;;;;;3.63;1.70;;;13.50;54.10;;;;;;5054279;28;20290;-65
2023/03/29 09:33:03;;;;;;;2.03;1.45;;;13.60;54.00;;;;;;5053363;28;20034;-66
2023/03/29 09:35:55;;;;;;;5.60;1.92;;;13.70;53.60;;;;;;5056671;28;20052;-66
2023/03/29 09:38:21;;;;;;;3.17;1.90;;;13.70;53.50;;;;;;5057468;28;20028;-66
2023/03/29 09:40:57;;;;;;;5.13;1.73;;;13.80;53.90;;;;;;5057457;28;20017;-65
2023/03/29 09:43:43;;;;;;;4.00;1.52;;;13.80;53.80;;;;;;5057599;28;20051;-65
2023/03/29 09:46:34;;;;;;;2.75;1.50;;;13.90;53.70;;;;;;5049970;28;20041;-65
2023/03/29 09:49:03;;;;;;;3.47;1.83;;;14.00;53.70;;;;;;5048534;28;20040;-67
2023/03/29 09:51:29;;;;;;;3.17;1.58;;;14.20;53.50;;;;;;5059424;28;20080;-66
2023/03/29 09:53:56;;;;;;;4.72;1.45;;;14.20;52.80;;;;;;5059991;28;20067;-67
2023/03/29 09:56:22;;;;;;;2.13;1.30;;;14.30;52.60;;;;;;5062608;28;20021;-65
2023/03/29 09:58:48;;;;;;;2.75;1.40;;;14.40;52.60;;;;;;5058555;28;20051;-65
2023/03/29 10:01:16;;;;;;;4.25;1.55;;;14.60;52.20;;;;;;5059117;28;20078;-66
2023/03/29 10:03:46;;;;;;;2.25;1.52;;;14.70;52.60;;;;;;5055662;28;20025;-65
2023/03/29 10:06:13;;;;;;;5.03;1.58;;;14.80;52.60;;;;;;5065889;28;20287;-66
2023/03/29 10:08:59;;;;;;;2.47;1.52;;;14.90;52.50;;;;;;5060043;28;20053;-66
2023/03/29 10:11:34;;;;;;;4.38;1.65;;;15.00;51.30;;;;;;5056197;28;20140;-66
2023/03/29 10:14:05;;;;;;;8.50;2.03;;;15.10;51.60;;;;;;5054305;28;20097;-66
2023/03/29 10:16:40;;;;;;;2.85;1.50;;;15.20;51.50;;;;;;5056436;28;20025;-65
2023/03/29 10:19:27;;;;;;;3.60;1.60;;;15.30;51.10;;;;;;5050715;28;20029;-66
2023/03/29 10:21:53;;;;;;;4.95;2.05;;;15.50;50.80;;;;;;5050254;28;20067;-66
2023/03/29 10:24:21;;;;;;;4.00;1.73;;;15.60;51.10;;;;;;5055265;28;20033;-65
2023/03/29 10:26:54;;;;;;;2.08;1.50;;;15.60;50.70;;;;;;5052569;28;20065;-65
2023/03/29 10:29:21;;;;;;;4.28;1.80;;;15.70;50.50;;;;;;5052621;28;20095;-66
2023/03/29 10:31:47;;;;;;;2.50;1.75;;;15.80;50.40;;;;;;5059664;28;20021;-65
2023/03/29 10:34:15;;;;;;;2.40;1.75;;;15.90;49.40;;;;;;5055902;28;20037;-65
2023/03/29 10:36:52;;;;;;;4.45;1.75;;;15.80;49.00;;;;;;5053219;28;20090;-66
2023/03/29 10:39:19;;;;;;;2.92;1.50;;;15.80;49.30;;;;;;5056327;28;20051;-66
2023/03/29 10:41:48;;;;;;;5.55;1.73;;;15.70;49.20;;;;;;5056233;28;20021;-66
2023/03/29 10:44:51;;;;;;;3.42;1.40;;;15.70;49.50;;;;;;5057527;28;20120;-66
2023/03/29 10:47:19;;;;;;;8.82;1.92;;;15.70;49.40;;;;;;5044232;28;20044;-66
2023/03/29 10:49:53;;;;;;;3.63;1.80;;;15.70;49.70;;;;;;5053270;28;20128;-66
2023/03/29 10:52:20;;;;;;;3.60;1.80;;;15.70;49.80;;;;;;5053102;28;20028;-66
2023/03/29 10:54:48;;;;;;;4.40;1.80;;;15.80;50.20;;;;;;5056299;28;20048;-66
2023/03/29 10:57:39;;;;;;;3.78;1.80;;;15.80;50.20;;;;;;5057008;28;20070;-66
2023/03/29 11:00:17;;;;;;;3.70;1.67;;;15.90;50.00;;;;;;5054067;28;20021;-65
2023/03/29 11:02:46;;;;;;;4.90;1.50;;;16.00;50.20;;;;;;5050787;28;20446;-65
2023/03/29 11:05:37;;;;;;;2.55;1.60;;;16.10;50.70;;;;;;5059362;28;20021;-66
2023/03/29 11:08:03;;;;;;;2.30;1.40;;;16.20;50.10;;;;;;5061183;28;20434;-66
2023/03/29 11:11:01;;;;;;;3.13;1.50;;;16.30;50.40;;;;;;5063218;28;20033;-66
2023/03/29 11:13:43;;;;;;;2.13;1.73;;;16.40;49.70;;;;;;5057704;28;20049;-66
2023/03/29 11:16:21;;;;;;;5.30;1.67;;;16.60;50.70;;;;;;5056589;28;20017;-66
2023/03/29 11:19:13;;;;;;;4.35;1.80;;;16.70;50.50;;;;;;5065503;28;20120;-66
2023/03/29 11:22:12;;;;;;;2.55;1.42;;;16.90;49.70;;;;;;5060027;28;20025;-66
2023/03/29 11:25:27;;;;;;;1.98;1.33;;;17.00;49.70;;;;;;5048878;28;20068;-66
2023/03/29 11:28:17;;;;;;;4.03;1.80;;;17.20;49.40;;;;;;5056188;28;20125;-66
2023/03/29 11:30:53;;;;;;;2.45;1.40;;;17.20;48.70;;;;;;5061851;28;20037;-66
2023/03/29 11:33:25;;;;;;;5.78;1.30;;;17.30;48.90;;;;;;5061525;28;20572;-66
2023/03/29 11:36:19;;;;;;;4.38;1.50;;;17.30;47.50;;;;;;5062304;28;20043;-66
2023/03/29 11:39:17;;;;;;;3.15;1.48;;;17.20;46.60;;;;;;5021361;28;20028;-67
2023/03/29 11:41:47;;;;;;;3.45;1.27;;;17.10;46.80;;;;;;5065715;28;20038;-68
2023/03/29 11:44:26;;;;;;;2.13;1.20;;;17.00;47.00;;;;;;5063103;28;20449;-66
2023/03/29 11:47:06;;;;;;;2.60;1.20;;;16.90;47.00;;;;;;5064795;28;20024;-67
2023/03/29 11:49:41;;;;;;;3.42;1.60;;;16.80;47.10;;;;;;5060765;28;20493;-66
2023/03/29 11:52:29;;;;;;;2.88;1.42;;;16.70;47.20;;;;;;5063868;28;20028;-66
2023/03/29 11:55:08;;;;;;;5.97;1.88;;;16.70;46.60;;;;;;5067371;28;20033;-66
2023/03/29 11:57:42;;;;;;;5.05;1.40;;;16.80;47.20;;;;;;5067675;28;20040;-66
2023/03/29 12:00:35;;;;;;;2.70;1.45;;;16.90;47.10;;;;;;5056794;28;20033;-67
2023/03/29 12:03:27;;;;;;;4.40;1.90;;;17.00;46.60;;;;;;5063402;28;20033;-65
2023/03/29 12:06:20;;;;;;;2.75;1.08;;;17.10;46.70;;;;;;5067387;28;20061;-66
2023/03/29 12:09:00;;;;;;;6.82;1.40;;;17.30;46.50;;;;;;5066179;28;20025;-66
2023/03/29 12:11:39;;;;;;;2.97;1.70;;;17.50;47.10;;;;;;5066747;28;20036;-67
2023/03/29 12:14:10;;;;;;;5.60;1.85;;;17.70;46.50;;;;;;5067191;28;20037;-65
2023/03/29 12:16:50;;;;;;;3.92;1.98;;;17.90;47.30;;;;;;5063961;28;20045;-66
2023/03/29 12:19:24;;;;;;;2.33;1.38;;;18.10;46.20;;;;;;5061166;28;20021;-65
2023/03/29 12:21:53;;;;;;;2.10;1.70;;;18.30;45.60;;;;;;5076870;28;20092;-67
2023/03/29 12:24:20;;;;;;;3.40;1.60;;;18.40;46.10;;;;;;5063031;28;20582;-65
2023/03/29 12:27:15;;;;;;;3.25;1.48;;;18.50;46.10;;;;;;5060180;28;20024;-66
2023/03/29 12:29:50;;;;;;;1.23;1.13;;;18.70;45.90;;;;;;5059892;28;20734;-66
2023/03/29 12:32:38;;;;;;;4.28;1.45;;;18.80;45.90;;;;;;5059375;28;20029;-66
2023/03/29 12:35:24;;;;;;;2.72;1.33;;;19.00;44.80;;;;;;5058445;28;20060;-66
2023/03/29 12:38:15;;;;;;;2.83;1.65;;;19.10;44.20;;;;;;5051687;28;20040;-66
2023/03/29 12:40:44;;;;;;;6.18;1.70;;;19.20;43.00;;;;;;5059493;28;20048;-67
2023/03/29 12:43:37;;;;;;;4.03;1.70;;;19.20;43.50;;;;;;5061882;28;20036;-66
2023/03/29 12:46:15;;;;;;;4.50;1.65;;;19.20;42.40;;;;;;5052186;28;20029;-66
2023/03/29 12:48:43;;;;;;;4.95;1.50;;;19.20;43.40;;;;;;5057758;28;20098;-66
2023/03/29 12:51:15;;;;;;;3.20;1.75;;;19.20;44.10;;;;;;5060679;28;20033;-65
2023/03/29 12:53:42;;;;;;;2.25;1.58;;;19.20;43.90;;;;;;5053885;28;20036;-64
2023/03/29 12:56:18;;;;;;;3.15;1.75;;;19.20;44.10;;;;;;5060436;28;20020;-66
2023/03/29 12:58:58;;;;;;;2.67;1.80;;;19.20;43.70;;;;;;5055948;28;20029;-66
2023/03/29 13:01:39;;;;;;;3.85;1.80;;;19.20;44.10;;;;;;5054934;28;20064;-66
2023/03/29 13:04:18;;;;;;;7.88;1.75;;;19.20;43.70;;;;;;5057387;28;20477;-65
2023/03/29 13:06:50;;;;;;;4.03;1.67;;;19.10;43.50;;;;;;5055485;28;20596;-65
2023/03/29 13:09:28;;;;;;;3.00;1.80;;;19.20;44.30;;;;;;5054159;28;20021;-66
2023/03/29 13:12:07;;;;;;;4.88;1.90;;;19.20;44.60;;;;;;5058317;28;20032;-65
2023/03/29 13:14:36;;;;;;;5.38;2.20;;;19.30;44.30;;;;;;5055189;28;20040;-65
2023/03/29 13:17:45;;;;;;;5.82;2.47;;;19.30;44.30;;;;;;5057178;28;20064;-64
2023/03/29 13:20:31;;;;;;;3.00;1.88;;;19.30;43.10;;;;;;5059737;28;20033;-65